createdAt,value
2022-08-16T00:00:04.080Z,21.88
2022-08-16T00:02:53.863Z,20.65
2022-08-16T00:05:22.917Z,15.93
2022-08-16T00:07:56.383Z,18.15
2022-08-16T00:10:26.707Z,14.55
2022-08-16T00:12:56.331Z,20.35
2022-08-16T00:15:51.432Z,17.65
2022-08-16T00:18:22.385Z,17.27
2022-08-16T00:20:57.867Z,17.23
2022-08-16T00:23:34.382Z,17.40
2022-08-16T00:26:36.230Z,14.40
2022-08-16T00:28:55.258Z,21.00
2022-08-16T00:31:24.203Z,20.33
2022-08-16T00:33:51.828Z,18.33
2022-08-16T00:36:19.955Z,15.38
2022-08-16T00:38:47.448Z,17.77
2022-08-16T00:41:15.366Z,16.83
2022-08-16T00:43:44.552Z,19.33
2022-08-16T00:46:34.413Z,15.55
2022-08-16T00:49:05.988Z,18.75
2022-08-16T00:51:33.747Z,15.88
2022-08-16T00:54:01.188Z,15.32
2022-08-16T00:56:56.466Z,18.45
2022-08-16T00:59:26.040Z,19.33
2022-08-16T01:01:53.955Z,17.20
2022-08-16T01:04:29.325Z,20.88
2022-08-16T01:07:01.714Z,15.07
2022-08-16T01:09:33.457Z,17.98
2022-08-16T01:12:04.201Z,19.98
2022-08-16T01:14:41.316Z,20.45
2022-08-16T01:17:14.612Z,19.23
2022-08-16T01:19:52.339Z,20.75
2022-08-16T01:22:49.397Z,22.85
2022-08-16T01:25:33.687Z,16.98
2022-08-16T01:28:07.177Z,19.88
2022-08-16T01:30:39.842Z,20.58
2022-08-16T01:33:17.499Z,19.38
2022-08-16T01:35:53.320Z,17.45
2022-08-16T01:38:28.417Z,22.10
2022-08-16T01:41:02.514Z,19.55
2022-08-16T01:43:33.588Z,19.05
2022-08-16T01:46:30.193Z,21.80
2022-08-16T01:49:00.169Z,24.02
2022-08-16T01:51:28.337Z,21.50
2022-08-16T01:53:57.902Z,21.27
2022-08-16T01:56:33.009Z,20.50
2022-08-16T01:59:07.013Z,22.40
2022-08-16T02:01:43.483Z,22.60
2022-08-16T02:04:48.816Z,23.25
2022-08-16T02:07:11.140Z,21.95
2022-08-16T02:09:40.939Z,22.02
2022-08-16T02:12:39.703Z,21.13
2022-08-16T02:14:57.603Z,20.05
2022-08-16T02:17:28.448Z,18.35
2022-08-16T02:19:59.481Z,19.10
2022-08-16T02:22:33.494Z,18.45
2022-08-16T02:25:09.948Z,19.52
2022-08-16T02:27:40.896Z,20.92
2022-08-16T02:30:37.538Z,21.10
2022-08-16T02:33:03.889Z,25.13
2022-08-16T02:35:32.370Z,22.58
2022-08-16T02:38:01.706Z,25.20
2022-08-16T02:40:38.587Z,18.95
2022-08-16T02:43:09.674Z,21.80
2022-08-16T02:45:39.279Z,21.42
2022-08-16T02:48:28.433Z,21.85
2022-08-16T02:51:06.819Z,21.63
2022-08-16T02:53:43.947Z,21.67
2022-08-16T02:56:15.997Z,23.90
2022-08-16T02:58:50.151Z,24.38
2022-08-16T03:01:25.240Z,23.83
2022-08-16T03:04:24.946Z,25.02
2022-08-16T03:06:57.738Z,26.80
2022-08-16T03:09:38.091Z,25.73
2022-08-16T03:12:06.656Z,25.08
2022-08-16T03:14:34.660Z,26.65
2022-08-16T03:17:04.751Z,22.38
2022-08-16T03:19:48.269Z,21.63
2022-08-16T03:22:28.337Z,23.88
2022-08-16T03:25:08.168Z,24.05
2022-08-16T03:27:39.162Z,19.77
2022-08-16T03:30:18.058Z,33.50
2022-08-16T03:32:58.579Z,24.88
2022-08-16T03:35:34.224Z,25.02
2022-08-16T03:38:32.659Z,28.33
2022-08-16T03:41:24.181Z,25.88
2022-08-16T03:43:56.954Z,22.20
2022-08-16T03:46:47.960Z,21.88
2022-08-16T03:49:23.626Z,18.98
2022-08-16T03:52:04.536Z,21.25
2022-08-16T03:54:35.590Z,25.75
2022-08-16T03:57:05.084Z,23.35
2022-08-16T03:59:33.708Z,22.80
2022-08-16T04:02:12.655Z,22.75
2022-08-16T04:04:50.821Z,26.33
2022-08-16T04:07:18.073Z,24.30
2022-08-16T04:09:47.166Z,25.75
2022-08-16T04:12:52.323Z,24.42
2022-08-16T04:15:04.600Z,22.63
2022-08-16T04:17:38.659Z,27.95
2022-08-16T04:20:31.725Z,26.67
2022-08-16T04:22:57.434Z,30.38
2022-08-16T04:25:27.127Z,25.55
2022-08-16T04:27:55.963Z,25.58
2022-08-16T04:30:31.781Z,29.38
2022-08-16T04:33:00.507Z,26.08
2022-08-16T04:35:33.948Z,30.45
2022-08-16T04:38:11.023Z,27.27
2022-08-16T04:40:50.005Z,34.03
2022-08-16T04:43:19.059Z,29.70
2022-08-16T04:45:47.481Z,26.35
2022-08-16T04:48:33.833Z,30.02
2022-08-16T04:51:12.283Z,30.25
2022-08-16T04:53:45.367Z,27.45
2022-08-16T04:56:14.435Z,29.52
2022-08-16T04:58:46.905Z,27.45
2022-08-16T05:01:17.916Z,24.40
2022-08-16T05:04:00.262Z,22.23
2022-08-16T05:06:45.152Z,32.92
2022-08-16T05:09:22.811Z,28.83
2022-08-16T05:11:51.906Z,29.27
2022-08-16T05:14:42.010Z,26.65
2022-08-16T05:17:06.399Z,32.78
2022-08-16T05:19:35.918Z,28.50
2022-08-16T05:22:18.146Z,27.52
2022-08-16T05:24:49.414Z,27.42
2022-08-16T05:27:22.515Z,27.20
2022-08-16T05:29:59.461Z,23.45
2022-08-16T05:32:36.527Z,25.17
2022-08-16T05:35:16.051Z,22.45
2022-08-16T05:38:00.763Z,22.23
2022-08-16T05:40:29.765Z,22.60
2022-08-16T05:42:58.107Z,24.40
2022-08-16T05:45:26.871Z,23.10
2022-08-16T05:48:00.429Z,23.40
2022-08-16T05:50:54.317Z,23.92
2022-08-16T05:53:22.256Z,22.83
2022-08-16T05:56:07.374Z,24.38
2022-08-16T05:58:40.174Z,21.30
2022-08-16T06:01:09.797Z,19.90
2022-08-16T06:03:39.371Z,21.35
2022-08-16T06:06:14.620Z,23.08
2022-08-16T06:08:55.365Z,21.38
2022-08-16T06:11:25.552Z,22.80
2022-08-16T06:13:57.757Z,25.13
2022-08-16T06:16:50.921Z,23.52
2022-08-16T06:19:20.095Z,18.85
2022-08-16T06:22:00.848Z,23.02
2022-08-16T06:24:53.594Z,24.38
2022-08-16T06:27:17.761Z,23.85
2022-08-16T06:29:50.275Z,21.40
2022-08-16T06:32:27.348Z,20.88
2022-08-16T06:35:02.073Z,22.80
2022-08-16T06:37:36.819Z,18.40
2022-08-16T06:40:12.977Z,20.52
2022-08-16T06:42:48.429Z,21.75
2022-08-16T06:45:38.134Z,20.55
2022-08-16T06:48:32.202Z,24.90
2022-08-16T06:51:03.755Z,18.73
2022-08-16T06:53:35.741Z,23.38
2022-08-16T06:56:14.374Z,19.58
2022-08-16T06:58:58.770Z,19.13
2022-08-16T07:01:44.500Z,20.92
2022-08-16T07:04:31.929Z,16.70
2022-08-16T07:07:09.909Z,19.10
2022-08-16T07:09:38.622Z,14.13
2022-08-16T07:12:06.361Z,21.00
2022-08-16T07:14:38.430Z,16.60
2022-08-16T07:17:12.657Z,24.05
2022-08-16T07:20:30.363Z,21.67
2022-08-16T07:22:52.412Z,16.33
2022-08-16T07:25:28.106Z,15.90
2022-08-16T07:27:55.372Z,17.13
2022-08-16T07:30:39.015Z,15.38
2022-08-16T07:33:52.821Z,18.65
2022-08-16T07:36:22.155Z,16.83
2022-08-16T07:38:52.330Z,15.75
2022-08-16T07:41:20.171Z,13.50
2022-08-16T07:43:52.733Z,14.40
2022-08-16T07:46:37.540Z,14.38
2022-08-16T07:49:18.138Z,21.08
2022-08-16T07:51:46.308Z,16.30
2022-08-16T07:54:21.067Z,17.60
2022-08-16T07:57:01.025Z,19.00
2022-08-16T07:59:45.906Z,18.92
2022-08-16T08:02:20.437Z,15.40
2022-08-16T08:04:52.702Z,21.50
2022-08-16T08:07:20.829Z,17.98
2022-08-16T08:09:51.821Z,21.83
2022-08-16T08:12:32.460Z,14.60
2022-08-16T08:15:09.729Z,14.63
2022-08-16T08:17:42.800Z,14.77
2022-08-16T08:20:28.410Z,15.35
2022-08-16T08:23:01.035Z,13.05
2022-08-16T08:25:54.991Z,15.68
2022-08-16T08:28:26.377Z,10.20
2022-08-16T08:31:01.117Z,12.43
2022-08-16T08:33:32.059Z,12.40
2022-08-16T08:36:07.463Z,12.77
2022-08-16T08:38:45.883Z,13.38
2022-08-16T08:41:19.759Z,13.77
2022-08-16T08:43:55.595Z,12.77
2022-08-16T08:46:24.218Z,12.95
2022-08-16T08:48:59.259Z,15.43
2022-08-16T08:51:35.540Z,13.95
2022-08-16T08:54:09.387Z,15.00
2022-08-16T08:56:45.313Z,12.27
2022-08-16T08:59:32.961Z,14.52
2022-08-16T09:02:03.524Z,16.10
2022-08-16T09:04:39.691Z,14.02
2022-08-16T09:07:07.564Z,14.15
2022-08-16T09:09:41.031Z,15.35
2022-08-16T09:12:30.189Z,13.10
2022-08-16T09:15:03.872Z,12.98
2022-08-16T09:17:48.759Z,14.23
2022-08-16T09:20:17.123Z,13.25
2022-08-16T09:22:51.417Z,14.02
2022-08-16T09:25:26.123Z,15.98
2022-08-16T09:27:57.742Z,15.65
2022-08-16T09:30:42.895Z,12.77
2022-08-16T09:33:12.830Z,15.60
2022-08-16T09:35:42.534Z,12.60
2022-08-16T09:38:12.370Z,14.40
2022-08-16T09:40:49.499Z,16.90
2022-08-16T09:43:53.336Z,19.70
2022-08-16T09:46:45.814Z,15.48
2022-08-16T09:48:58.259Z,12.38
2022-08-16T09:51:36.946Z,12.85
2022-08-16T09:54:06.041Z,13.02
2022-08-16T09:56:38.836Z,14.45
2022-08-16T09:59:08.622Z,12.75
2022-08-16T10:01:38.525Z,15.57
2022-08-16T10:04:28.215Z,13.15
2022-08-16T10:09:45.076Z,12.13
2022-08-16T10:12:42.216Z,13.52
2022-08-16T10:15:15.217Z,11.93
2022-08-16T10:17:59.489Z,10.32
2022-08-16T10:20:32.652Z,14.25
2022-08-16T10:23:06.795Z,10.40
2022-08-16T10:27:19.700Z,10.93
2022-08-16T10:28:32.457Z,14.98
2022-08-16T10:31:14.532Z,12.27
2022-08-16T10:33:57.217Z,11.18
2022-08-16T10:36:37.870Z,10.95
2022-08-16T10:39:08.543Z,12.73
2022-08-16T10:41:35.981Z,14.30
2022-08-16T10:44:03.305Z,11.25
2022-08-16T10:46:40.042Z,9.02
2022-08-16T10:49:11.860Z,11.13
2022-08-16T10:52:03.481Z,14.30
2022-08-16T10:54:29.320Z,11.55
2022-08-16T10:56:59.268Z,18.30
2022-08-16T10:59:38.232Z,11.52
2022-08-16T11:02:59.736Z,11.65
2022-08-16T11:05:06.526Z,11.85
2022-08-16T11:07:52.621Z,16.80
2022-08-16T11:19:04.911Z,13.73
2022-08-16T11:22:11.095Z,13.85
2022-08-16T11:24:40.001Z,18.20
2022-08-16T11:27:19.583Z,12.73
2022-08-16T11:29:52.288Z,15.15
2022-08-16T11:32:22.676Z,16.25
2022-08-16T11:35:13.372Z,16.50
2022-08-16T11:40:44.473Z,14.27
2022-08-16T11:43:16.651Z,13.32
2022-08-16T11:45:54.114Z,14.15
2022-08-16T11:48:24.849Z,17.20
2022-08-16T11:50:52.866Z,13.45
2022-08-16T11:53:21.910Z,12.60
2022-08-16T11:55:50.747Z,13.55
2022-08-16T11:58:24.673Z,12.32
2022-08-16T12:00:53.317Z,13.32
2022-08-16T12:03:34.298Z,11.70
2022-08-16T12:06:25.102Z,12.80
2022-08-16T12:09:00.841Z,12.25
2022-08-16T12:11:31.705Z,12.65
2022-08-16T12:14:04.937Z,15.88
2022-08-16T12:16:37.256Z,13.93
2022-08-16T12:19:10.610Z,12.48
2022-08-16T12:21:58.380Z,12.75
2022-08-16T12:24:27.844Z,14.88
2022-08-16T12:26:55.409Z,13.25
2022-08-16T12:29:22.696Z,14.25
2022-08-16T12:32:00.959Z,16.65
2022-08-16T12:34:47.935Z,14.63
2022-08-16T12:37:18.700Z,13.27
2022-08-16T12:39:50.823Z,14.35
2022-08-16T12:42:20.628Z,16.25
2022-08-16T12:44:50.209Z,18.50
2022-08-16T12:47:37.265Z,15.07
2022-08-16T12:50:10.499Z,15.85
2022-08-16T12:52:52.137Z,19.33
2022-08-16T12:55:22.057Z,14.45
2022-08-16T12:57:58.124Z,16.00
2022-08-16T13:00:33.451Z,16.40
2022-08-16T13:03:03.498Z,17.08
2022-08-16T13:05:42.935Z,15.27
2022-08-16T13:08:20.760Z,18.42
2022-08-16T13:10:50.603Z,13.75
2022-08-16T13:13:25.028Z,14.00
2022-08-16T13:16:03.695Z,14.63
2022-08-16T13:18:35.378Z,30.65
2022-08-16T13:21:07.817Z,19.10
2022-08-16T13:23:43.759Z,11.90
2022-08-16T13:26:12.795Z,16.23
2022-08-16T13:28:47.774Z,24.85
2022-08-16T13:31:16.847Z,28.88
2022-08-16T13:33:44.716Z,23.65
2022-08-16T13:39:01.606Z,10.77
2022-08-16T13:41:30.171Z,12.95
2022-08-16T13:43:59.663Z,23.48
2022-08-16T13:46:28.452Z,21.17
2022-08-16T13:48:57.483Z,23.33
2022-08-16T13:51:29.313Z,22.08
2022-08-16T13:54:03.753Z,26.85
2022-08-16T13:56:34.478Z,30.48
2022-08-16T13:59:14.363Z,25.35
2022-08-16T14:01:55.710Z,31.48
2022-08-16T14:04:26.098Z,31.05
2022-08-16T14:06:54.942Z,34.45
2022-08-16T14:09:24.369Z,26.45
2022-08-16T14:11:53.726Z,24.33
2022-08-16T14:14:28.775Z,23.50
2022-08-16T14:17:02.245Z,29.33
2022-08-16T14:19:30.287Z,36.85
2022-08-16T14:22:13.705Z,30.05
2022-08-16T14:24:45.189Z,37.78
2022-08-16T14:27:17.138Z,30.73
2022-08-16T14:29:45.684Z,31.70
2022-08-16T14:32:27.009Z,45.50
2022-08-16T14:35:04.226Z,29.33
2022-08-16T14:37:32.069Z,27.45
2022-08-16T14:40:00.019Z,32.53
2022-08-16T14:42:27.721Z,22.95
2022-08-16T14:44:54.889Z,21.92
2022-08-16T14:47:22.768Z,23.67
2022-08-16T14:49:52.420Z,24.45
2022-08-16T14:52:37.981Z,23.45
2022-08-16T14:55:11.748Z,20.80
2022-08-16T14:57:40.488Z,19.23
2022-08-16T15:00:12.145Z,19.50
2022-08-16T15:02:40.718Z,19.98
2022-08-16T15:05:09.994Z,22.40
2022-08-16T15:07:40.176Z,19.00
2022-08-16T15:10:12.048Z,19.08
2022-08-16T15:12:54.219Z,22.83
2022-08-16T15:15:25.950Z,24.67
2022-08-16T15:17:54.633Z,21.52
2022-08-16T15:20:29.995Z,20.40
2022-08-16T15:22:59.819Z,23.48
2022-08-16T15:25:31.892Z,20.40
2022-08-16T15:28:04.639Z,24.23
2022-08-16T15:30:57.645Z,19.88
2022-08-16T15:33:25.290Z,18.95
2022-08-16T15:35:55.408Z,17.08
2022-08-16T15:38:54.716Z,21.33
2022-08-16T15:41:33.216Z,19.85
2022-08-16T15:44:05.533Z,21.58
2022-08-16T15:46:56.618Z,24.58
2022-08-16T15:49:34.928Z,21.75
2022-08-16T15:52:10.459Z,18.80
2022-08-16T15:54:52.458Z,19.05
2022-08-16T15:57:24.273Z,19.00
2022-08-16T15:59:56.162Z,16.48
2022-08-16T16:02:38.861Z,18.88
2022-08-16T16:05:09.757Z,17.60
2022-08-16T16:07:55.453Z,17.15
2022-08-16T16:10:28.315Z,18.63
2022-08-16T16:13:00.382Z,22.52
2022-08-16T16:15:32.478Z,24.30
2022-08-16T16:17:59.831Z,19.90
2022-08-16T16:20:47.476Z,16.33
2022-08-16T16:23:17.702Z,18.70
2022-08-16T16:25:45.625Z,20.90
2022-08-16T16:29:05.653Z,24.13
2022-08-16T16:31:08.858Z,21.10
2022-08-16T16:33:39.984Z,21.40
2022-08-16T16:36:08.477Z,23.15
2022-08-16T16:38:35.746Z,20.35
2022-08-16T16:41:11.324Z,19.20
2022-08-16T16:43:41.668Z,18.38
2022-08-16T16:46:40.411Z,18.02
2022-08-16T16:48:58.069Z,15.38
2022-08-16T16:51:28.044Z,15.05
2022-08-16T16:53:57.100Z,17.35
2022-08-16T16:56:31.331Z,17.10
2022-08-16T16:59:02.229Z,15.00
2022-08-16T17:01:56.623Z,15.80
2022-08-16T17:04:31.424Z,15.68
2022-08-16T17:07:03.622Z,18.55
2022-08-16T17:09:30.801Z,17.98
2022-08-16T17:11:58.848Z,19.08
2022-08-16T17:14:32.260Z,19.85
2022-08-16T17:17:08.687Z,16.33
2022-08-16T17:19:41.022Z,17.35
2022-08-16T17:22:15.431Z,17.20
2022-08-16T17:24:50.926Z,17.63
2022-08-16T17:27:34.005Z,19.10
2022-08-16T17:30:12.353Z,16.67
2022-08-16T17:32:50.405Z,16.88
2022-08-16T17:35:55.604Z,21.75
2022-08-16T17:38:38.591Z,17.45
2022-08-16T17:41:12.864Z,19.80
2022-08-16T17:43:43.804Z,18.50
2022-08-16T17:46:51.528Z,22.55
2022-08-16T17:49:00.544Z,19.45
2022-08-16T17:51:28.621Z,15.93
2022-08-16T17:53:55.695Z,17.95
2022-08-16T17:56:22.824Z,19.30
2022-08-16T17:58:49.938Z,19.63
2022-08-16T18:01:27.102Z,15.73
2022-08-16T18:04:07.946Z,19.00
2022-08-16T18:06:37.112Z,20.23
2022-08-16T18:09:04.891Z,19.73
2022-08-16T18:11:41.311Z,21.48
2022-08-16T18:14:11.414Z,20.88
2022-08-16T18:16:40.827Z,19.35
2022-08-16T18:19:09.342Z,20.63
2022-08-16T18:21:55.045Z,19.30
2022-08-16T18:24:22.008Z,22.17
2022-08-16T18:26:49.205Z,22.48
2022-08-16T18:29:16.277Z,23.08
2022-08-16T18:31:43.316Z,21.90
2022-08-16T18:34:10.564Z,22.33
2022-08-16T18:36:37.592Z,22.45
2022-08-16T18:39:04.870Z,20.55
2022-08-16T18:41:36.930Z,20.50
2022-08-16T18:44:25.652Z,26.52
2022-08-16T18:46:53.628Z,32.60
2022-08-16T18:49:20.648Z,31.45
2022-08-16T18:51:47.723Z,28.15
2022-08-16T18:54:18.345Z,28.92
2022-08-16T18:56:57.109Z,28.90
2022-08-16T18:59:30.269Z,22.17
2022-08-16T19:02:04.507Z,26.80
2022-08-16T19:04:55.800Z,25.63
2022-08-16T19:07:29.872Z,26.33
2022-08-16T19:10:01.444Z,28.50
2022-08-16T19:12:47.154Z,29.13
2022-08-16T19:15:20.274Z,25.52
2022-08-16T19:17:48.017Z,24.92
2022-08-16T19:20:19.142Z,23.73
2022-08-16T19:25:47.156Z,26.50
2022-08-16T19:28:21.774Z,25.40
2022-08-16T19:31:10.946Z,26.70
2022-08-16T19:33:39.056Z,26.15
2022-08-16T19:36:06.750Z,27.98
2022-08-16T19:38:35.417Z,28.58
2022-08-16T19:41:02.521Z,24.23
2022-08-16T19:43:29.559Z,26.08
2022-08-16T19:45:56.746Z,23.65
2022-08-16T19:48:23.836Z,30.98
2022-08-16T19:50:51.154Z,30.10
2022-08-16T19:53:19.538Z,26.98
2022-08-16T19:55:47.690Z,27.75
2022-08-16T19:58:18.278Z,31.77
2022-08-16T20:00:47.141Z,21.98
2022-08-16T20:03:21.908Z,24.80
2022-08-16T20:05:51.834Z,18.85
2022-08-16T20:08:19.167Z,20.05
2022-08-16T20:10:47.437Z,21.52
2022-08-16T20:13:19.386Z,21.50
2022-08-16T20:15:48.392Z,21.95
2022-08-16T20:18:24.806Z,51.25
2022-08-16T20:20:52.962Z,17.60
2022-08-16T20:23:24.360Z,24.10
2022-08-16T20:25:55.922Z,41.50
2022-08-16T20:28:52.004Z,84.50
2022-08-16T20:31:11.990Z,15.23
2022-08-16T20:33:39.058Z,12.25
2022-08-16T20:36:06.177Z,15.27
2022-08-16T20:38:35.302Z,14.82
2022-08-16T20:41:02.508Z,14.25
2022-08-16T20:43:29.472Z,21.52
2022-08-16T20:45:56.481Z,19.13
2022-08-16T20:48:23.572Z,16.73
2022-08-16T20:50:50.509Z,17.55
2022-08-16T20:53:17.721Z,14.75
2022-08-16T20:55:45.607Z,21.90
2022-08-16T20:58:12.792Z,23.55
2022-08-16T21:00:40.904Z,24.45
2022-08-16T21:03:10.096Z,21.63
2022-08-16T21:05:37.275Z,24.42
2022-08-16T21:08:50.224Z,34.80
2022-08-16T21:10:52.670Z,33.88
2022-08-16T21:13:20.885Z,34.88
2022-08-16T21:15:49.044Z,36.80
2022-08-16T21:18:16.118Z,30.70
2022-08-16T21:20:43.421Z,30.15
2022-08-16T21:23:11.318Z,32.10
2022-08-16T21:25:58.161Z,29.48
2022-08-16T21:28:39.360Z,34.15
2022-08-16T21:31:10.996Z,34.67
2022-08-16T21:33:37.900Z,33.15
2022-08-16T21:36:05.287Z,35.53
2022-08-16T21:38:32.502Z,33.85
2022-08-16T21:41:00.386Z,37.05
2022-08-16T21:43:31.902Z,31.40
2022-08-16T21:46:03.878Z,42.95
2022-08-16T21:48:33.824Z,36.08
2022-08-16T21:51:07.448Z,23.40
2022-08-16T21:53:35.670Z,24.17
2022-08-16T21:56:03.314Z,19.50
2022-08-16T21:58:31.155Z,21.85
2022-08-16T22:00:59.278Z,27.58
2022-08-16T22:03:26.326Z,21.33
2022-08-16T22:06:13.590Z,20.27
2022-08-16T22:08:50.618Z,17.55
2022-08-16T22:11:20.826Z,21.00
2022-08-16T22:13:51.285Z,22.15
2022-08-16T22:16:34.059Z,24.92
2022-08-16T22:19:02.278Z,20.80
2022-08-16T22:21:30.397Z,18.27
2022-08-16T22:23:58.838Z,20.08
2022-08-16T22:26:32.177Z,17.70
2022-08-16T22:29:09.290Z,20.58
2022-08-16T22:31:38.052Z,17.75
2022-08-16T22:34:05.872Z,18.50
2022-08-16T22:36:34.370Z,27.25
2022-08-16T22:39:03.674Z,23.20
2022-08-16T22:41:32.868Z,25.77
2022-08-16T22:44:02.139Z,21.83
2022-08-16T22:46:30.447Z,15.82
2022-08-16T22:48:57.785Z,22.70
2022-08-16T22:51:27.260Z,23.23
2022-08-16T22:53:55.061Z,56.67
2022-08-16T22:56:24.242Z,30.95
2022-08-16T22:58:51.422Z,21.67
2022-08-16T23:01:20.433Z,19.65
2022-08-16T23:03:47.730Z,34.85
2022-08-16T23:06:15.471Z,27.70
2022-08-16T23:08:46.067Z,27.05
2022-08-16T23:11:21.305Z,32.88
2022-08-16T23:13:53.558Z,33.47
2022-08-16T23:16:32.769Z,21.75
2022-08-16T23:19:07.258Z,26.95
2022-08-16T23:21:37.184Z,25.98
2022-08-16T23:24:05.665Z,28.63
2022-08-16T23:26:44.395Z,26.13
2022-08-16T23:29:26.524Z,26.35
2022-08-16T23:32:08.606Z,28.10
2022-08-16T23:34:35.790Z,31.23
2022-08-16T23:37:02.837Z,25.17
2022-08-16T23:39:29.820Z,29.05
2022-08-16T23:41:56.984Z,25.92
2022-08-16T23:44:58.703Z,26.17
2022-08-16T23:47:11.806Z,24.67
2022-08-16T23:49:58.241Z,29.20
2022-08-16T23:52:45.707Z,32.88
2022-08-16T23:55:13.507Z,28.27
2022-08-16T23:57:40.646Z,31.55
